sensor_id;sensor_type;location;lat;lon;timestamp;P1;durP1;ratioP1;P2;durP2;ratioP2
10890;SDS011;5498;50.928;11.598;2023-04-03T00:00:00;542.17;;;109.77;;
10890;SDS011;5498;50.928;11.598;2023-04-03T00:03:03;543.80;;;110.83;;
10890;SDS011;5498;50.928;11.598;2023-04-03T00:06:05;546.20;;;106.33;;
10890;SDS011;5498;50.928;11.598;2023-04-03T00:09:08;546.73;;;112.13;;
10890;SDS011;5498;50.928;11.598;2023-04-03T00:12:10;544.07;;;111.93;;
10890;SDS011;5498;50.928;11.598;2023-04-03T00:15:13;545.83;;;112.40;;
10890;SDS011;5498;50.928;11.598;2023-04-03T00:18:15;546.63;;;115.63;;
10890;SDS011;5498;50.928;11.598;2023-04-03T00:21:17;536.30;;;103.53;;
10890;SDS011;5498;50.928;11.598;2023-04-03T00:24:19;539.33;;;106.53;;
10890;SDS011;5498;50.928;11.598;2023-04-03T00:27:21;540.93;;;111.67;;
10890;SDS011;5498;50.928;11.598;2023-04-03T00:30:24;537.20;;;105.37;;
10890;SDS011;5498;50.928;11.598;2023-04-03T00:33:26;538.70;;;104.53;;
10890;SDS011;5498;50.928;11.598;2023-04-03T00:36:28;539.77;;;108.67;;
10890;SDS011;5498;50.928;11.598;2023-04-03T00:39:30;538.87;;;104.90;;
10890;SDS011;5498;50.928;11.598;2023-04-03T00:42:32;539.93;;;108.03;;
10890;SDS011;5498;50.928;11.598;2023-04-03T00:45:36;535.57;;;100.63;;
10890;SDS011;5498;50.928;11.598;2023-04-03T00:48:41;542.03;;;110.20;;
10890;SDS011;5498;50.928;11.598;2023-04-03T00:51:46;540.17;;;104.63;;
10890;SDS011;5498;50.928;11.598;2023-04-03T00:54:48;535.10;;;99.67;;
10890;SDS011;5498;50.928;11.598;2023-04-03T00:57:53;534.40;;;101.50;;
10890;SDS011;5498;50.928;11.598;2023-04-03T01:00:58;534.97;;;104.93;;
10890;SDS011;5498;50.928;11.598;2023-04-03T01:04:05;540.40;;;101.57;;
10890;SDS011;5498;50.928;11.598;2023-04-03T01:07:27;537.33;;;98.17;;
10890;SDS011;5498;50.928;11.598;2023-04-03T01:10:33;532.00;;;96.57;;
10890;SDS011;5498;50.928;11.598;2023-04-03T01:13:35;530.87;;;97.83;;
10890;SDS011;5498;50.928;11.598;2023-04-03T01:16:38;532.97;;;97.20;;
10890;SDS011;5498;50.928;11.598;2023-04-03T01:19:40;537.27;;;93.97;;
10890;SDS011;5498;50.928;11.598;2023-04-03T01:22:48;534.00;;;95.17;;
10890;SDS011;5498;50.928;11.598;2023-04-03T01:25:58;537.50;;;97.60;;
10890;SDS011;5498;50.928;11.598;2023-04-03T01:29:00;532.33;;;97.53;;
10890;SDS011;5498;50.928;11.598;2023-04-03T01:32:04;528.00;;;89.00;;
10890;SDS011;5498;50.928;11.598;2023-04-03T01:35:07;533.83;;;93.27;;
10890;SDS011;5498;50.928;11.598;2023-04-03T01:38:10;529.30;;;94.97;;
10890;SDS011;5498;50.928;11.598;2023-04-03T01:41:12;527.57;;;91.77;;
10890;SDS011;5498;50.928;11.598;2023-04-03T01:44:15;527.70;;;89.20;;
10890;SDS011;5498;50.928;11.598;2023-04-03T01:47:18;533.63;;;98.90;;
10890;SDS011;5498;50.928;11.598;2023-04-03T01:50:20;528.37;;;92.17;;
10890;SDS011;5498;50.928;11.598;2023-04-03T01:53:22;532.30;;;92.93;;
10890;SDS011;5498;50.928;11.598;2023-04-03T01:56:24;526.13;;;91.00;;
10890;SDS011;5498;50.928;11.598;2023-04-03T01:59:26;530.67;;;97.03;;
10890;SDS011;5498;50.928;11.598;2023-04-03T02:02:29;532.03;;;98.07;;
10890;SDS011;5498;50.928;11.598;2023-04-03T02:05:31;537.13;;;100.87;;
10890;SDS011;5498;50.928;11.598;2023-04-03T02:08:35;533.00;;;96.77;;
10890;SDS011;5498;50.928;11.598;2023-04-03T02:11:36;532.73;;;91.77;;
10890;SDS011;5498;50.928;11.598;2023-04-03T02:14:38;531.80;;;98.60;;
10890;SDS011;5498;50.928;11.598;2023-04-03T02:17:41;530.47;;;92.70;;
10890;SDS011;5498;50.928;11.598;2023-04-03T02:20:43;526.83;;;91.13;;
10890;SDS011;5498;50.928;11.598;2023-04-03T02:23:45;527.83;;;93.00;;
10890;SDS011;5498;50.928;11.598;2023-04-03T02:26:47;523.50;;;92.40;;
10890;SDS011;5498;50.928;11.598;2023-04-03T02:29:49;527.43;;;90.53;;
10890;SDS011;5498;50.928;11.598;2023-04-03T02:32:52;530.53;;;97.93;;
10890;SDS011;5498;50.928;11.598;2023-04-03T02:35:54;524.33;;;91.27;;
10890;SDS011;5498;50.928;11.598;2023-04-03T02:38:57;521.93;;;89.30;;
10890;SDS011;5498;50.928;11.598;2023-04-03T02:41:59;519.13;;;90.17;;
10890;SDS011;5498;50.928;11.598;2023-04-03T02:45:01;526.43;;;98.83;;
10890;SDS011;5498;50.928;11.598;2023-04-03T02:48:04;529.70;;;96.63;;
10890;SDS011;5498;50.928;11.598;2023-04-03T02:51:06;527.00;;;96.07;;
10890;SDS011;5498;50.928;11.598;2023-04-03T02:54:08;529.40;;;97.17;;
10890;SDS011;5498;50.928;11.598;2023-04-03T02:57:10;524.57;;;93.97;;
10890;SDS011;5498;50.928;11.598;2023-04-03T03:00:12;529.07;;;105.00;;
10890;SDS011;5498;50.928;11.598;2023-04-03T03:03:16;526.77;;;96.40;;
10890;SDS011;5498;50.928;11.598;2023-04-03T03:06:18;526.67;;;89.07;;
10890;SDS011;5498;50.928;11.598;2023-04-03T03:09:20;528.33;;;100.23;;
10890;SDS011;5498;50.928;11.598;2023-04-03T03:12:22;523.50;;;93.33;;
10890;SDS011;5498;50.928;11.598;2023-04-03T03:15:24;517.77;;;88.87;;
10890;SDS011;5498;50.928;11.598;2023-04-03T03:18:27;525.40;;;95.73;;
10890;SDS011;5498;50.928;11.598;2023-04-03T03:21:30;528.37;;;98.70;;
10890;SDS011;5498;50.928;11.598;2023-04-03T03:24:32;521.63;;;93.47;;
10890;SDS011;5498;50.928;11.598;2023-04-03T03:27:34;523.97;;;98.07;;
10890;SDS011;5498;50.928;11.598;2023-04-03T03:30:35;529.13;;;99.50;;
10890;SDS011;5498;50.928;11.598;2023-04-03T03:33:39;526.70;;;95.43;;
10890;SDS011;5498;50.928;11.598;2023-04-03T03:36:41;526.00;;;95.60;;
10890;SDS011;5498;50.928;11.598;2023-04-03T03:39:43;519.57;;;91.23;;
10890;SDS011;5498;50.928;11.598;2023-04-03T03:42:45;522.43;;;90.67;;
10890;SDS011;5498;50.928;11.598;2023-04-03T03:45:49;525.63;;;94.10;;
10890;SDS011;5498;50.928;11.598;2023-04-03T03:48:53;523.97;;;90.67;;
10890;SDS011;5498;50.928;11.598;2023-04-03T03:51:55;533.00;;;92.63;;
10890;SDS011;5498;50.928;11.598;2023-04-03T03:54:57;518.73;;;87.73;;
10890;SDS011;5498;50.928;11.598;2023-04-03T03:57:59;524.10;;;97.70;;
10890;SDS011;5498;50.928;11.598;2023-04-03T04:01:01;520.73;;;90.23;;
10890;SDS011;5498;50.928;11.598;2023-04-03T04:04:05;529.57;;;100.53;;
10890;SDS011;5498;50.928;11.598;2023-04-03T04:07:07;520.10;;;89.93;;
10890;SDS011;5498;50.928;11.598;2023-04-03T04:10:09;531.63;;;104.73;;
10890;SDS011;5498;50.928;11.598;2023-04-03T04:13:11;531.77;;;104.20;;
10890;SDS011;5498;50.928;11.598;2023-04-03T04:16:13;527.27;;;93.57;;
10890;SDS011;5498;50.928;11.598;2023-04-03T04:19:16;528.10;;;101.13;;
10890;SDS011;5498;50.928;11.598;2023-04-03T04:22:18;518.97;;;86.47;;
10890;SDS011;5498;50.928;11.598;2023-04-03T04:25:19;519.67;;;89.40;;
10890;SDS011;5498;50.928;11.598;2023-04-03T04:28:21;525.57;;;92.13;;
10890;SDS011;5498;50.928;11.598;2023-04-03T04:31:23;521.03;;;88.53;;
10890;SDS011;5498;50.928;11.598;2023-04-03T04:34:27;528.37;;;91.73;;
10890;SDS011;5498;50.928;11.598;2023-04-03T04:37:28;521.53;;;85.13;;
10890;SDS011;5498;50.928;11.598;2023-04-03T04:40:30;522.77;;;86.20;;
10890;SDS011;5498;50.928;11.598;2023-04-03T04:43:32;521.47;;;86.13;;
10890;SDS011;5498;50.928;11.598;2023-04-03T04:46:34;513.67;;;82.13;;
10890;SDS011;5498;50.928;11.598;2023-04-03T04:49:37;519.30;;;81.97;;
10890;SDS011;5498;50.928;11.598;2023-04-03T04:52:39;524.83;;;83.40;;
10890;SDS011;5498;50.928;11.598;2023-04-03T04:55:41;519.27;;;84.23;;
10890;SDS011;5498;50.928;11.598;2023-04-03T04:58:43;510.77;;;75.30;;
10890;SDS011;5498;50.928;11.598;2023-04-03T05:01:45;514.90;;;77.23;;
10890;SDS011;5498;50.928;11.598;2023-04-03T05:04:48;518.23;;;79.53;;
10890;SDS011;5498;50.928;11.598;2023-04-03T05:07:52;513.20;;;77.60;;
10890;SDS011;5498;50.928;11.598;2023-04-03T05:10:53;515.17;;;81.70;;
10890;SDS011;5498;50.928;11.598;2023-04-03T05:13:55;521.93;;;82.07;;
10890;SDS011;5498;50.928;11.598;2023-04-03T05:16:57;516.30;;;83.53;;
10890;SDS011;5498;50.928;11.598;2023-04-03T05:20:00;530.50;;;80.20;;
10890;SDS011;5498;50.928;11.598;2023-04-03T05:23:04;524.80;;;81.63;;
10890;SDS011;5498;50.928;11.598;2023-04-03T05:26:06;522.77;;;87.43;;
10890;SDS011;5498;50.928;11.598;2023-04-03T05:29:08;544.37;;;118.77;;
10890;SDS011;5498;50.928;11.598;2023-04-03T05:32:10;529.50;;;84.87;;
10890;SDS011;5498;50.928;11.598;2023-04-03T05:35:14;531.97;;;87.23;;
10890;SDS011;5498;50.928;11.598;2023-04-03T05:38:16;525.43;;;85.57;;
10890;SDS011;5498;50.928;11.598;2023-04-03T05:41:18;529.63;;;90.17;;
10890;SDS011;5498;50.928;11.598;2023-04-03T05:44:21;525.67;;;86.27;;
10890;SDS011;5498;50.928;11.598;2023-04-03T05:47:23;531.30;;;86.70;;
10890;SDS011;5498;50.928;11.598;2023-04-03T05:50:27;524.03;;;85.53;;
10890;SDS011;5498;50.928;11.598;2023-04-03T05:53:30;528.50;;;84.87;;
10890;SDS011;5498;50.928;11.598;2023-04-03T05:56:36;536.47;;;99.60;;
10890;SDS011;5498;50.928;11.598;2023-04-03T05:59:38;525.40;;;94.23;;
10890;SDS011;5498;50.928;11.598;2023-04-03T06:02:40;522.37;;;89.60;;
10890;SDS011;5498;50.928;11.598;2023-04-03T06:05:43;519.67;;;89.40;;
10890;SDS011;5498;50.928;11.598;2023-04-03T06:08:46;523.13;;;97.67;;
10890;SDS011;5498;50.928;11.598;2023-04-03T06:11:48;533.10;;;109.87;;
10890;SDS011;5498;50.928;11.598;2023-04-03T06:14:50;534.67;;;89.23;;
10890;SDS011;5498;50.928;11.598;2023-04-03T06:17:52;534.77;;;94.20;;
10890;SDS011;5498;50.928;11.598;2023-04-03T06:20:55;538.73;;;103.03;;
10890;SDS011;5498;50.928;11.598;2023-04-03T06:23:58;535.10;;;104.07;;
10890;SDS011;5498;50.928;11.598;2023-04-03T06:27:00;541.00;;;116.50;;
10890;SDS011;5498;50.928;11.598;2023-04-03T06:30:02;533.53;;;100.43;;
10890;SDS011;5498;50.928;11.598;2023-04-03T06:33:05;529.77;;;91.17;;
10890;SDS011;5498;50.928;11.598;2023-04-03T06:36:10;537.17;;;111.37;;
10890;SDS011;5498;50.928;11.598;2023-04-03T06:39:13;532.30;;;96.07;;
10890;SDS011;5498;50.928;11.598;2023-04-03T06:42:18;535.70;;;105.63;;
10890;SDS011;5498;50.928;11.598;2023-04-03T06:45:21;543.67;;;125.60;;
10890;SDS011;5498;50.928;11.598;2023-04-03T06:48:30;523.90;;;87.93;;
10890;SDS011;5498;50.928;11.598;2023-04-03T06:51:34;536.57;;;115.67;;
10890;SDS011;5498;50.928;11.598;2023-04-03T06:54:37;534.27;;;105.20;;
10890;SDS011;5498;50.928;11.598;2023-04-03T06:57:39;529.60;;;106.60;;
10890;SDS011;5498;50.928;11.598;2023-04-03T07:00:44;539.03;;;111.67;;
10890;SDS011;5498;50.928;11.598;2023-04-03T07:03:47;535.80;;;109.23;;
10890;SDS011;5498;50.928;11.598;2023-04-03T07:06:51;533.67;;;104.53;;
10890;SDS011;5498;50.928;11.598;2023-04-03T07:09:53;536.00;;;112.90;;
10890;SDS011;5498;50.928;11.598;2023-04-03T07:12:56;535.57;;;108.27;;
10890;SDS011;5498;50.928;11.598;2023-04-03T07:16:00;532.23;;;103.73;;
10890;SDS011;5498;50.928;11.598;2023-04-03T07:19:03;534.90;;;107.20;;
10890;SDS011;5498;50.928;11.598;2023-04-03T07:22:13;530.73;;;96.47;;
10890;SDS011;5498;50.928;11.598;2023-04-03T07:25:17;529.90;;;94.20;;
10890;SDS011;5498;50.928;11.598;2023-04-03T07:28:19;542.33;;;136.83;;
10890;SDS011;5498;50.928;11.598;2023-04-03T07:31:22;539.17;;;122.53;;
10890;SDS011;5498;50.928;11.598;2023-04-03T07:34:25;528.37;;;99.33;;
10890;SDS011;5498;50.928;11.598;2023-04-03T07:37:28;528.13;;;96.13;;
10890;SDS011;5498;50.928;11.598;2023-04-03T07:40:30;528.97;;;91.77;;
10890;SDS011;5498;50.928;11.598;2023-04-03T07:43:32;522.00;;;88.67;;
10890;SDS011;5498;50.928;11.598;2023-04-03T07:46:35;521.97;;;87.07;;
10890;SDS011;5498;50.928;11.598;2023-04-03T07:49:40;528.13;;;95.77;;
10890;SDS011;5498;50.928;11.598;2023-04-03T07:52:45;524.97;;;97.37;;
10890;SDS011;5498;50.928;11.598;2023-04-03T07:55:47;528.23;;;100.77;;
10890;SDS011;5498;50.928;11.598;2023-04-03T07:58:51;534.93;;;108.00;;
10890;SDS011;5498;50.928;11.598;2023-04-03T08:01:53;533.63;;;106.60;;
10890;SDS011;5498;50.928;11.598;2023-04-03T08:04:55;540.43;;;114.27;;
10890;SDS011;5498;50.928;11.598;2023-04-03T08:07:58;542.40;;;133.10;;
10890;SDS011;5498;50.928;11.598;2023-04-03T08:11:01;555.20;;;152.93;;
10890;SDS011;5498;50.928;11.598;2023-04-03T08:14:05;550.97;;;144.83;;
10890;SDS011;5498;50.928;11.598;2023-04-03T08:17:08;545.37;;;138.17;;
10890;SDS011;5498;50.928;11.598;2023-04-03T08:20:11;548.70;;;141.87;;
10890;SDS011;5498;50.928;11.598;2023-04-03T08:23:14;555.00;;;145.73;;
10890;SDS011;5498;50.928;11.598;2023-04-03T08:26:17;561.20;;;165.07;;
10890;SDS011;5498;50.928;11.598;2023-04-03T08:29:22;556.33;;;155.53;;
10890;SDS011;5498;50.928;11.598;2023-04-03T08:32:24;555.60;;;151.97;;
10890;SDS011;5498;50.928;11.598;2023-04-03T08:35:25;554.27;;;152.40;;
10890;SDS011;5498;50.928;11.598;2023-04-03T08:38:29;569.97;;;172.77;;
10890;SDS011;5498;50.928;11.598;2023-04-03T08:41:31;553.50;;;153.63;;
10890;SDS011;5498;50.928;11.598;2023-04-03T08:44:39;556.97;;;159.13;;
10890;SDS011;5498;50.928;11.598;2023-04-03T08:47:50;562.37;;;167.30;;
10890;SDS011;5498;50.928;11.598;2023-04-03T08:50:59;554.07;;;153.87;;
10890;SDS011;5498;50.928;11.598;2023-04-03T08:54:21;556.77;;;156.53;;
10890;SDS011;5498;50.928;11.598;2023-04-03T08:57:31;561.40;;;175.07;;
10890;SDS011;5498;50.928;11.598;2023-04-03T09:00:37;565.43;;;185.07;;
10890;SDS011;5498;50.928;11.598;2023-04-03T09:03:46;561.77;;;176.20;;
10890;SDS011;5498;50.928;11.598;2023-04-03T09:06:49;563.37;;;178.27;;
10890;SDS011;5498;50.928;11.598;2023-04-03T09:09:58;571.90;;;194.80;;
10890;SDS011;5498;50.928;11.598;2023-04-03T09:13:03;577.13;;;217.47;;
10890;SDS011;5498;50.928;11.598;2023-04-03T09:16:19;577.60;;;217.47;;
10890;SDS011;5498;50.928;11.598;2023-04-03T09:19:41;580.53;;;218.20;;
10890;SDS011;5498;50.928;11.598;2023-04-03T09:22:52;571.43;;;197.90;;
10890;SDS011;5498;50.928;11.598;2023-04-03T09:25:58;567.73;;;177.73;;
10890;SDS011;5498;50.928;11.598;2023-04-03T09:29:06;561.07;;;168.57;;
10890;SDS011;5498;50.928;11.598;2023-04-03T09:32:25;574.73;;;207.33;;
10890;SDS011;5498;50.928;11.598;2023-04-03T09:35:32;564.27;;;185.13;;
10890;SDS011;5498;50.928;11.598;2023-04-03T09:38:59;561.67;;;170.43;;
10890;SDS011;5498;50.928;11.598;2023-04-03T09:42:15;556.17;;;147.17;;
10890;SDS011;5498;50.928;11.598;2023-04-03T09:45:25;555.97;;;147.50;;
10890;SDS011;5498;50.928;11.598;2023-04-03T09:48:33;550.47;;;136.90;;
10890;SDS011;5498;50.928;11.598;2023-04-03T09:51:36;551.20;;;132.57;;
10890;SDS011;5498;50.928;11.598;2023-04-03T09:54:47;544.73;;;122.33;;
10890;SDS011;5498;50.928;11.598;2023-04-03T09:57:51;547.53;;;129.67;;
10890;SDS011;5498;50.928;11.598;2023-04-03T10:00:57;541.73;;;120.57;;
10890;SDS011;5498;50.928;11.598;2023-04-03T10:04:06;545.67;;;126.30;;
10890;SDS011;5498;50.928;11.598;2023-04-03T10:07:26;543.73;;;128.53;;
10890;SDS011;5498;50.928;11.598;2023-04-03T10:10:35;543.00;;;123.90;;
10890;SDS011;5498;50.928;11.598;2023-04-03T10:13:50;547.50;;;129.90;;
10890;SDS011;5498;50.928;11.598;2023-04-03T10:17:13;546.43;;;131.33;;
10890;SDS011;5498;50.928;11.598;2023-04-03T10:20:40;546.90;;;132.47;;
10890;SDS011;5498;50.928;11.598;2023-04-03T10:23:50;548.20;;;134.30;;
10890;SDS011;5498;50.928;11.598;2023-04-03T10:27:05;546.77;;;135.63;;
10890;SDS011;5498;50.928;11.598;2023-04-03T10:30:27;551.57;;;131.17;;
10890;SDS011;5498;50.928;11.598;2023-04-03T10:33:39;552.90;;;144.23;;
10890;SDS011;5498;50.928;11.598;2023-04-03T10:36:59;553.03;;;148.43;;
10890;SDS011;5498;50.928;11.598;2023-04-03T10:40:14;551.43;;;145.23;;
10890;SDS011;5498;50.928;11.598;2023-04-03T10:43:27;546.80;;;133.10;;
10890;SDS011;5498;50.928;11.598;2023-04-03T10:46:37;548.80;;;136.90;;
10890;SDS011;5498;50.928;11.598;2023-04-03T10:49:45;542.77;;;122.67;;
10890;SDS011;5498;50.928;11.598;2023-04-03T10:53:01;550.87;;;136.30;;
10890;SDS011;5498;50.928;11.598;2023-04-03T10:56:10;548.77;;;132.30;;
10890;SDS011;5498;50.928;11.598;2023-04-03T10:59:21;549.97;;;135.50;;
10890;SDS011;5498;50.928;11.598;2023-04-03T11:02:30;551.43;;;141.80;;
10890;SDS011;5498;50.928;11.598;2023-04-03T11:05:34;560.57;;;150.50;;
10890;SDS011;5498;50.928;11.598;2023-04-03T11:08:42;554.07;;;149.37;;
10890;SDS011;5498;50.928;11.598;2023-04-03T11:11:48;562.17;;;162.87;;
10890;SDS011;5498;50.928;11.598;2023-04-03T11:14:53;559.17;;;160.97;;
10890;SDS011;5498;50.928;11.598;2023-04-03T11:18:00;560.03;;;164.27;;
10890;SDS011;5498;50.928;11.598;2023-04-03T11:21:07;567.67;;;175.47;;
10890;SDS011;5498;50.928;11.598;2023-04-03T11:24:17;569.43;;;197.13;;
10890;SDS011;5498;50.928;11.598;2023-04-03T11:27:24;566.43;;;188.50;;
10890;SDS011;5498;50.928;11.598;2023-04-03T11:30:31;565.03;;;181.87;;
10890;SDS011;5498;50.928;11.598;2023-04-03T11:33:43;579.73;;;220.73;;
10890;SDS011;5498;50.928;11.598;2023-04-03T11:36:53;578.77;;;205.07;;
10890;SDS011;5498;50.928;11.598;2023-04-03T11:39:59;577.80;;;219.53;;
10890;SDS011;5498;50.928;11.598;2023-04-03T11:43:07;585.77;;;215.37;;
10890;SDS011;5498;50.928;11.598;2023-04-03T11:49:58;569.80;;;190.00;;
10890;SDS011;5498;50.928;11.598;2023-04-03T11:53:11;582.70;;;222.93;;
10890;SDS011;5498;50.928;11.598;2023-04-03T11:56:36;569.27;;;189.10;;
10890;SDS011;5498;50.928;11.598;2023-04-03T11:59:37;573.10;;;192.33;;
10890;SDS011;5498;50.928;11.598;2023-04-03T12:02:40;583.00;;;222.37;;
10890;SDS011;5498;50.928;11.598;2023-04-03T12:05:45;578.87;;;210.67;;
10890;SDS011;5498;50.928;11.598;2023-04-03T12:08:48;574.13;;;197.33;;
10890;SDS011;5498;50.928;11.598;2023-04-03T12:11:54;576.20;;;199.97;;
10890;SDS011;5498;50.928;11.598;2023-04-03T12:15:11;563.37;;;167.93;;
10890;SDS011;5498;50.928;11.598;2023-04-03T12:18:57;570.03;;;184.53;;
10890;SDS011;5498;50.928;11.598;2023-04-03T12:28:51;584.60;;;237.83;;
10890;SDS011;5498;50.928;11.598;2023-04-03T12:31:58;588.60;;;245.97;;
10890;SDS011;5498;50.928;11.598;2023-04-03T12:35:20;570.63;;;195.73;;
10890;SDS011;5498;50.928;11.598;2023-04-03T12:38:45;562.80;;;173.37;;
10890;SDS011;5498;50.928;11.598;2023-04-03T12:42:05;569.93;;;184.77;;
10890;SDS011;5498;50.928;11.598;2023-04-03T12:45:36;575.13;;;207.80;;
10890;SDS011;5498;50.928;11.598;2023-04-03T12:48:48;558.40;;;153.07;;
10890;SDS011;5498;50.928;11.598;2023-04-03T12:51:51;557.53;;;150.83;;
10890;SDS011;5498;50.928;11.598;2023-04-03T12:54:55;563.43;;;168.50;;
10890;SDS011;5498;50.928;11.598;2023-04-03T12:58:12;563.33;;;172.27;;
10890;SDS011;5498;50.928;11.598;2023-04-03T13:01:17;559.50;;;159.80;;
10890;SDS011;5498;50.928;11.598;2023-04-03T13:04:22;553.73;;;144.30;;
10890;SDS011;5498;50.928;11.598;2023-04-03T13:07:26;556.67;;;145.87;;
10890;SDS011;5498;50.928;11.598;2023-04-03T13:10:35;566.50;;;166.93;;
10890;SDS011;5498;50.928;11.598;2023-04-03T13:13:55;557.10;;;150.00;;
10890;SDS011;5498;50.928;11.598;2023-04-03T13:16:59;563.67;;;157.83;;
10890;SDS011;5498;50.928;11.598;2023-04-03T13:20:12;565.03;;;166.40;;
10890;SDS011;5498;50.928;11.598;2023-04-03T13:23:19;562.97;;;160.03;;
10890;SDS011;5498;50.928;11.598;2023-04-03T13:26:26;567.50;;;173.67;;
10890;SDS011;5498;50.928;11.598;2023-04-03T13:29:31;556.77;;;145.60;;
10890;SDS011;5498;50.928;11.598;2023-04-03T13:32:35;556.43;;;145.90;;
10890;SDS011;5498;50.928;11.598;2023-04-03T13:35:37;560.47;;;153.53;;
10890;SDS011;5498;50.928;11.598;2023-04-03T13:38:41;561.93;;;161.00;;
10890;SDS011;5498;50.928;11.598;2023-04-03T13:41:46;559.17;;;150.53;;
10890;SDS011;5498;50.928;11.598;2023-04-03T13:44:49;563.27;;;157.80;;
10890;SDS011;5498;50.928;11.598;2023-04-03T13:48:20;559.50;;;153.30;;
10890;SDS011;5498;50.928;11.598;2023-04-03T13:51:23;562.67;;;164.33;;
10890;SDS011;5498;50.928;11.598;2023-04-03T13:54:29;561.83;;;163.27;;
10890;SDS011;5498;50.928;11.598;2023-04-03T13:57:35;563.63;;;159.33;;
10890;SDS011;5498;50.928;11.598;2023-04-03T14:00:38;553.60;;;140.67;;
10890;SDS011;5498;50.928;11.598;2023-04-03T14:03:51;558.50;;;153.03;;
10890;SDS011;5498;50.928;11.598;2023-04-03T14:06:56;563.03;;;160.23;;
10890;SDS011;5498;50.928;11.598;2023-04-03T14:09:59;557.17;;;154.87;;
10890;SDS011;5498;50.928;11.598;2023-04-03T14:13:02;560.33;;;155.63;;
10890;SDS011;5498;50.928;11.598;2023-04-03T14:16:04;560.37;;;147.60;;
10890;SDS011;5498;50.928;11.598;2023-04-03T14:19:07;558.40;;;152.37;;
10890;SDS011;5498;50.928;11.598;2023-04-03T14:22:25;562.73;;;150.13;;
10890;SDS011;5498;50.928;11.598;2023-04-03T14:25:30;558.50;;;152.80;;
10890;SDS011;5498;50.928;11.598;2023-04-03T14:28:34;557.67;;;146.43;;
10890;SDS011;5498;50.928;11.598;2023-04-03T14:31:36;561.40;;;155.77;;
10890;SDS011;5498;50.928;11.598;2023-04-03T14:34:38;562.10;;;156.97;;
10890;SDS011;5498;50.928;11.598;2023-04-03T14:37:40;566.53;;;173.47;;
10890;SDS011;5498;50.928;11.598;2023-04-03T14:40:42;565.03;;;172.37;;
10890;SDS011;5498;50.928;11.598;2023-04-03T14:43:46;564.67;;;168.30;;
10890;SDS011;5498;50.928;11.598;2023-04-03T14:46:48;563.10;;;165.10;;
10890;SDS011;5498;50.928;11.598;2023-04-03T14:49:50;567.10;;;179.27;;
10890;SDS011;5498;50.928;11.598;2023-04-03T14:52:53;561.97;;;154.53;;
10890;SDS011;5498;50.928;11.598;2023-04-03T14:55:58;559.97;;;152.90;;
10890;SDS011;5498;50.928;11.598;2023-04-03T14:59:01;559.27;;;157.23;;
10890;SDS011;5498;50.928;11.598;2023-04-03T15:02:25;560.23;;;157.17;;
10890;SDS011;5498;50.928;11.598;2023-04-03T15:05:34;563.77;;;165.47;;
10890;SDS011;5498;50.928;11.598;2023-04-03T15:08:37;569.60;;;177.50;;
10890;SDS011;5498;50.928;11.598;2023-04-03T15:11:41;569.73;;;177.90;;
10890;SDS011;5498;50.928;11.598;2023-04-03T15:14:44;570.93;;;187.63;;
10890;SDS011;5498;50.928;11.598;2023-04-03T15:17:46;576.43;;;199.43;;
10890;SDS011;5498;50.928;11.598;2023-04-03T15:20:54;574.53;;;198.83;;
10890;SDS011;5498;50.928;11.598;2023-04-03T15:23:56;577.47;;;205.23;;
10890;SDS011;5498;50.928;11.598;2023-04-03T15:26:58;583.53;;;215.20;;
10890;SDS011;5498;50.928;11.598;2023-04-03T15:30:03;575.73;;;200.10;;
10890;SDS011;5498;50.928;11.598;2023-04-03T15:33:07;585.20;;;223.80;;
10890;SDS011;5498;50.928;11.598;2023-04-03T15:36:09;583.10;;;217.70;;
10890;SDS011;5498;50.928;11.598;2023-04-03T15:39:11;573.43;;;196.73;;
10890;SDS011;5498;50.928;11.598;2023-04-03T15:42:13;565.23;;;170.83;;
10890;SDS011;5498;50.928;11.598;2023-04-03T15:45:16;561.33;;;158.90;;
10890;SDS011;5498;50.928;11.598;2023-04-03T15:48:18;560.93;;;156.37;;
10890;SDS011;5498;50.928;11.598;2023-04-03T15:51:20;568.43;;;182.07;;
10890;SDS011;5498;50.928;11.598;2023-04-03T15:54:22;561.87;;;159.37;;
10890;SDS011;5498;50.928;11.598;2023-04-03T15:57:25;561.70;;;162.53;;
10890;SDS011;5498;50.928;11.598;2023-04-03T16:00:28;566.17;;;157.93;;
10890;SDS011;5498;50.928;11.598;2023-04-03T16:03:31;567.10;;;159.27;;
10890;SDS011;5498;50.928;11.598;2023-04-03T16:06:33;567.37;;;156.93;;
10890;SDS011;5498;50.928;11.598;2023-04-03T16:09:35;560.57;;;154.63;;
10890;SDS011;5498;50.928;11.598;2023-04-03T16:12:38;572.93;;;173.23;;
10890;SDS011;5498;50.928;11.598;2023-04-03T16:15:41;563.07;;;156.97;;
10890;SDS011;5498;50.928;11.598;2023-04-03T16:18:44;561.97;;;163.30;;
10890;SDS011;5498;50.928;11.598;2023-04-03T16:21:47;560.30;;;154.53;;
10890;SDS011;5498;50.928;11.598;2023-04-03T16:24:49;555.17;;;143.77;;
10890;SDS011;5498;50.928;11.598;2023-04-03T16:27:51;562.43;;;161.60;;
10890;SDS011;5498;50.928;11.598;2023-04-03T16:30:54;562.63;;;151.40;;
10890;SDS011;5498;50.928;11.598;2023-04-03T16:33:56;557.20;;;148.80;;
10890;SDS011;5498;50.928;11.598;2023-04-03T16:36:58;562.60;;;164.60;;
10890;SDS011;5498;50.928;11.598;2023-04-03T16:40:00;562.43;;;162.53;;
10890;SDS011;5498;50.928;11.598;2023-04-03T16:43:03;568.50;;;178.40;;
10890;SDS011;5498;50.928;11.598;2023-04-03T16:46:06;571.47;;;185.00;;
10890;SDS011;5498;50.928;11.598;2023-04-03T16:49:08;580.07;;;194.40;;
10890;SDS011;5498;50.928;11.598;2023-04-03T16:52:10;577.20;;;198.80;;
10890;SDS011;5498;50.928;11.598;2023-04-03T16:55:12;590.97;;;228.30;;
10890;SDS011;5498;50.928;11.598;2023-04-03T16:58:14;591.83;;;242.03;;
10890;SDS011;5498;50.928;11.598;2023-04-03T17:01:18;589.73;;;246.67;;
10890;SDS011;5498;50.928;11.598;2023-04-03T17:04:21;596.57;;;251.13;;
10890;SDS011;5498;50.928;11.598;2023-04-03T17:07:23;591.40;;;248.77;;
10890;SDS011;5498;50.928;11.598;2023-04-03T17:10:26;602.80;;;279.17;;
10890;SDS011;5498;50.928;11.598;2023-04-03T17:13:29;603.53;;;257.17;;
10890;SDS011;5498;50.928;11.598;2023-04-03T17:16:35;590.53;;;248.13;;
10890;SDS011;5498;50.928;11.598;2023-04-03T17:19:38;584.43;;;230.13;;
10890;SDS011;5498;50.928;11.598;2023-04-03T17:22:42;588.03;;;227.73;;
10890;SDS011;5498;50.928;11.598;2023-04-03T17:25:44;577.67;;;210.97;;
10890;SDS011;5498;50.928;11.598;2023-04-03T17:28:46;581.83;;;212.83;;
10890;SDS011;5498;50.928;11.598;2023-04-03T17:31:49;578.50;;;215.77;;
10890;SDS011;5498;50.928;11.598;2023-04-03T17:34:51;588.67;;;234.43;;
10890;SDS011;5498;50.928;11.598;2023-04-03T17:37:53;588.10;;;236.50;;
10890;SDS011;5498;50.928;11.598;2023-04-03T17:40:56;590.10;;;237.93;;
10890;SDS011;5498;50.928;11.598;2023-04-03T17:43:58;583.90;;;227.00;;
10890;SDS011;5498;50.928;11.598;2023-04-03T17:47:01;577.20;;;213.03;;